Mirabel, Canada
Current Conditions -  °F | °C
As of 9:00 PM on Thursday 18 Dec 2014 (Local Time) from CYMX Reporting Station
Overcast Overcast  
Wind Chill: 22°   Ceiling: 2000
Heat Index: 28°   Visibility: 25mi
Dew Point: 23°   Wind: 6mph
Humidity: 80%   Direction: 270°W
Pressure: 29.94"   Gusts: NA
Location:  45.67°N, 73.98°W
Report Text: CYMX 190200Z 27005KT 250V310 25SM BKN020 OVC050 M02/M05 A2994 RMK SC5SC3 SLP144
Loading
Personal Weather Stations






























Interactive Weather Map New forecast layout! Learn more

10-Day Weather Forecast

Advertisements
Track Severe Weather on mobile